createdAt,value
2023-03-11T00:01:03.017Z,100.00
2023-03-11T00:03:29.536Z,100.00
2023-03-11T00:05:58.528Z,99.94
2023-03-11T00:08:25.703Z,99.45
2023-03-11T00:10:55.328Z,99.85
2023-03-11T00:13:28.146Z,100.00
2023-03-11T00:15:56.264Z,99.17
2023-03-11T00:18:28.089Z,100.00
2023-03-11T00:20:56.110Z,99.91
2023-03-11T00:23:23.128Z,99.77
2023-03-11T00:25:49.644Z,100.00
2023-03-11T00:28:17.160Z,100.00
2023-03-11T00:30:45.649Z,100.00
2023-03-11T00:33:15.983Z,100.00
2023-03-11T00:35:43.795Z,100.00
2023-03-11T00:38:15.280Z,100.00
2023-03-11T00:40:42.960Z,100.00
2023-03-11T00:43:10.711Z,100.00
2023-03-11T00:45:37.154Z,100.00
2023-03-11T00:48:04.581Z,100.00
2023-03-11T00:50:33.633Z,100.00
2023-03-11T00:53:00.431Z,100.00
2023-03-11T00:55:30.234Z,100.00
2023-03-11T00:58:02.926Z,100.00
2023-03-11T01:00:30.792Z,100.00
2023-03-11T01:02:57.655Z,100.00
2023-03-11T01:05:27.940Z,100.00
2023-03-11T01:07:57.796Z,100.00
2023-03-11T01:10:25.271Z,100.00
2023-03-11T01:12:51.789Z,100.00
2023-03-11T01:15:25.120Z,100.00
2023-03-11T01:17:51.540Z,100.00
2023-03-11T01:20:18.363Z,100.00
2023-03-11T01:22:45.019Z,100.00
2023-03-11T01:25:16.061Z,100.00
2023-03-11T01:27:43.075Z,100.00
2023-03-11T01:30:12.882Z,100.00
2023-03-11T01:32:39.434Z,100.00
2023-03-11T01:35:06.346Z,100.00
2023-03-11T01:37:32.882Z,100.00
2023-03-11T01:39:59.338Z,100.00
2023-03-11T01:42:25.859Z,100.00
2023-03-11T01:44:52.313Z,100.00
2023-03-11T01:47:41.108Z,100.00
2023-03-11T01:50:12.641Z,100.00
2023-03-11T01:52:40.062Z,100.00
2023-03-11T01:55:07.241Z,100.00
2023-03-11T01:57:33.894Z,100.00
2023-03-11T02:00:05.971Z,100.00
2023-03-11T02:02:49.262Z,100.00
2023-03-11T02:05:20.855Z,100.00
2023-03-11T02:07:49.283Z,99.80
2023-03-11T02:10:17.282Z,100.00
2023-03-11T02:12:45.317Z,100.00
2023-03-11T02:15:13.087Z,99.70
2023-03-11T02:17:40.788Z,99.15
2023-03-11T02:20:29.848Z,98.88
2023-03-11T02:22:57.351Z,98.80
2023-03-11T02:25:45.730Z,98.57
2023-03-11T02:28:15.513Z,98.94
2023-03-11T02:30:43.903Z,98.92
2023-03-11T02:33:12.104Z,99.46
2023-03-11T02:35:38.582Z,99.86
2023-03-11T02:38:05.109Z,99.94
2023-03-11T02:40:35.234Z,100.00
2023-03-11T02:43:05.191Z,100.00
2023-03-11T02:45:32.198Z,100.00
2023-03-11T02:48:00.483Z,100.00
2023-03-11T02:50:28.976Z,100.00
2023-03-11T02:52:55.998Z,100.00
2023-03-11T02:55:22.556Z,100.00
2023-03-11T02:57:49.156Z,100.00
2023-03-11T03:00:17.845Z,100.00
2023-03-11T03:02:45.787Z,100.00
2023-03-11T03:05:13.348Z,100.00
2023-03-11T03:07:39.793Z,100.00
2023-03-11T03:10:06.762Z,100.00
2023-03-11T03:12:33.475Z,100.00
2023-03-11T03:14:59.910Z,100.00
2023-03-11T03:17:26.574Z,100.00
2023-03-11T03:19:53.083Z,100.00
2023-03-11T03:22:19.616Z,100.00
2023-03-11T03:24:46.142Z,100.00
2023-03-11T03:27:12.602Z,100.00
2023-03-11T03:29:39.058Z,100.00
2023-03-11T03:32:05.914Z,100.00
2023-03-11T03:34:32.475Z,100.00
2023-03-11T03:36:58.900Z,99.81
2023-03-11T03:39:25.339Z,99.76
2023-03-11T03:41:51.760Z,99.08
2023-03-11T03:44:18.297Z,99.51
2023-03-11T03:46:44.842Z,98.14
2023-03-11T03:49:11.291Z,97.50
2023-03-11T03:51:37.743Z,97.07
2023-03-11T03:54:04.455Z,97.33
2023-03-11T03:56:30.885Z,97.39
2023-03-11T03:58:57.309Z,96.83
2023-03-11T04:01:23.727Z,97.37
2023-03-11T04:03:50.298Z,96.77
2023-03-11T04:06:25.627Z,95.55
2023-03-11T04:08:54.067Z,95.66
2023-03-11T04:11:21.457Z,95.17
2023-03-11T04:13:48.030Z,95.22
2023-03-11T04:16:20.787Z,95.19
2023-03-11T04:18:47.703Z,95.40
2023-03-11T04:21:14.194Z,95.25
2023-03-11T04:23:40.667Z,95.19
2023-03-11T04:26:07.141Z,94.67
2023-03-11T04:28:33.679Z,93.89
2023-03-11T04:31:00.147Z,94.18
2023-03-11T04:33:26.569Z,94.96
2023-03-11T04:35:53.040Z,94.73
2023-03-11T04:38:19.535Z,94.70
2023-03-11T04:40:45.977Z,94.71
2023-03-11T04:43:12.464Z,94.85
2023-03-11T04:45:40.040Z,95.44
2023-03-11T04:48:06.705Z,94.84
2023-03-11T04:50:33.174Z,95.21
2023-03-11T04:52:59.596Z,95.26
2023-03-11T04:55:26.240Z,95.09
2023-03-11T04:57:52.653Z,95.99
2023-03-11T05:00:24.586Z,95.77
2023-03-11T05:02:51.559Z,96.28
2023-03-11T05:05:21.142Z,96.33
2023-03-11T05:07:47.931Z,96.26
2023-03-11T05:10:15.261Z,96.42
2023-03-11T05:12:41.657Z,97.21
2023-03-11T05:15:08.315Z,97.25
2023-03-11T05:17:34.765Z,97.27
2023-03-11T05:20:01.221Z,97.62
2023-03-11T05:22:27.606Z,97.28
2023-03-11T05:24:54.012Z,97.38
2023-03-11T05:27:21.303Z,97.64
2023-03-11T05:29:47.784Z,97.34
2023-03-11T05:32:14.314Z,98.02
2023-03-11T05:34:43.519Z,98.03
2023-03-11T05:37:09.979Z,98.25
2023-03-11T05:39:37.761Z,98.69
2023-03-11T05:42:13.301Z,98.87
2023-03-11T05:44:39.808Z,99.19
2023-03-11T05:47:06.370Z,99.59
2023-03-11T05:49:33.106Z,99.45
2023-03-11T05:51:59.571Z,98.99
2023-03-11T05:54:26.309Z,99.25
2023-03-11T05:56:53.050Z,99.55
2023-03-11T05:59:19.766Z,99.37
2023-03-11T06:01:46.371Z,99.71
2023-03-11T06:04:13.221Z,99.98
2023-03-11T06:06:41.453Z,100.00
2023-03-11T06:09:12.657Z,100.00
2023-03-11T06:11:39.064Z,100.00
2023-03-11T06:14:05.595Z,99.86
2023-03-11T06:16:32.049Z,99.71
2023-03-11T06:19:00.656Z,99.57
2023-03-11T06:21:27.185Z,99.60
2023-03-11T06:23:53.838Z,99.61
2023-03-11T06:26:21.791Z,99.96
2023-03-11T06:28:49.418Z,99.56
2023-03-11T06:31:19.522Z,99.74
2023-03-11T06:33:47.109Z,99.40
2023-03-11T06:36:16.404Z,98.55
2023-03-11T06:38:43.281Z,99.10
2023-03-11T06:41:10.578Z,99.00
2023-03-11T06:43:37.230Z,98.97
2023-03-11T06:46:18.758Z,99.41
2023-03-11T06:48:47.862Z,98.86
2023-03-11T06:51:14.477Z,98.68
2023-03-11T06:53:41.423Z,98.73
2023-03-11T06:56:13.308Z,98.30
2023-03-11T06:58:42.088Z,98.33
2023-03-11T07:01:16.059Z,98.48
2023-03-11T07:03:43.182Z,98.67
2023-03-11T07:06:17.848Z,98.24
2023-03-11T07:08:46.514Z,98.20
2023-03-11T07:11:15.854Z,98.02
2023-03-11T07:13:43.042Z,98.38
2023-03-11T07:16:24.018Z,97.70
2023-03-11T07:18:52.105Z,96.83
2023-03-11T07:21:21.327Z,96.37
2023-03-11T07:23:51.677Z,96.45
2023-03-11T07:26:18.732Z,95.63
2023-03-11T07:28:45.678Z,95.20
2023-03-11T07:31:16.643Z,94.41
2023-03-11T07:33:43.636Z,94.05
2023-03-11T07:36:16.630Z,94.29
2023-03-11T07:38:44.099Z,93.54
2023-03-11T07:41:12.387Z,93.12
2023-03-11T07:43:40.145Z,93.21
2023-03-11T07:46:16.792Z,92.63
2023-03-11T07:48:43.242Z,92.35
2023-03-11T07:51:16.069Z,91.77
2023-03-11T07:53:43.099Z,92.27
2023-03-11T07:56:11.749Z,91.36
2023-03-11T07:58:38.813Z,90.61
2023-03-11T08:01:10.644Z,91.13
2023-03-11T08:03:38.506Z,90.83
2023-03-11T08:06:16.060Z,90.09
2023-03-11T08:08:43.422Z,90.65
2023-03-11T08:11:11.207Z,90.60
2023-03-11T08:13:37.676Z,90.81
2023-03-11T08:16:06.099Z,90.51
2023-03-11T08:18:32.873Z,90.17
2023-03-11T08:20:59.923Z,90.45
2023-03-11T08:23:26.380Z,89.13
2023-03-11T08:25:52.798Z,89.41
2023-03-11T08:28:21.935Z,89.52
2023-03-11T08:30:48.524Z,89.67
2023-03-11T08:33:14.963Z,89.55
2023-03-11T08:35:41.422Z,89.49
2023-03-11T08:38:08.129Z,88.70
2023-03-11T08:40:34.629Z,88.13
2023-03-11T08:43:01.081Z,88.29
2023-03-11T08:45:27.501Z,87.76
2023-03-11T08:47:54.101Z,87.72
2023-03-11T08:50:20.702Z,87.79
2023-03-11T08:52:47.572Z,87.75
2023-03-11T08:55:17.801Z,87.87
2023-03-11T08:57:44.780Z,86.97
2023-03-11T09:00:13.386Z,87.25
2023-03-11T09:02:41.814Z,86.85
2023-03-11T09:05:09.206Z,86.85
2023-03-11T09:07:36.096Z,85.87
2023-03-11T09:10:02.709Z,84.93
2023-03-11T09:12:30.299Z,84.15
2023-03-11T09:14:56.740Z,82.61
2023-03-11T09:17:23.387Z,82.37
2023-03-11T09:19:50.008Z,83.08
2023-03-11T09:22:16.451Z,81.55
2023-03-11T09:24:42.866Z,82.27
2023-03-11T09:27:09.283Z,81.35
2023-03-11T09:29:35.755Z,81.54
2023-03-11T09:32:02.204Z,80.39
2023-03-11T09:34:28.633Z,81.10
2023-03-11T09:36:55.025Z,82.25
2023-03-11T09:39:21.546Z,82.86
2023-03-11T09:42:17.798Z,81.67
2023-03-11T09:45:24.853Z,81.33
2023-03-11T09:47:57.190Z,81.81
2023-03-11T09:50:31.383Z,80.25
2023-03-11T09:52:58.054Z,78.95
2023-03-11T09:55:39.642Z,78.42
2023-03-11T09:58:17.753Z,75.51
2023-03-11T10:00:44.738Z,71.59
2023-03-11T10:03:26.485Z,70.72
2023-03-11T10:05:58.560Z,67.40
2023-03-11T10:08:33.020Z,61.79
2023-03-11T10:11:21.476Z,59.83
2023-03-11T10:14:02.009Z,56.79
2023-03-11T10:16:51.255Z,55.33
2023-03-11T10:19:46.764Z,54.89
2023-03-11T10:22:38.583Z,52.24
2023-03-11T10:25:17.170Z,50.49
2023-03-11T10:27:51.884Z,50.25
2023-03-11T10:30:33.774Z,50.29
2023-03-11T10:33:04.779Z,48.13
2023-03-11T10:35:41.438Z,47.83
2023-03-11T10:38:15.025Z,47.21
2023-03-11T10:40:45.125Z,46.88
2023-03-11T10:43:17.148Z,46.98
2023-03-11T10:45:45.872Z,45.11
2023-03-11T10:48:17.667Z,46.26
2023-03-11T10:51:12.831Z,45.28
2023-03-11T10:53:52.040Z,45.20
2023-03-11T10:56:31.074Z,43.92
2023-03-11T10:58:58.875Z,44.91
2023-03-11T11:01:26.288Z,45.56
2023-03-11T11:03:55.863Z,45.29
2023-03-11T11:06:26.700Z,46.32
2023-03-11T11:09:11.613Z,44.68
2023-03-11T11:11:39.528Z,43.13
2023-03-11T11:14:06.174Z,42.86
2023-03-11T11:16:35.094Z,43.12
2023-03-11T11:19:08.024Z,44.54
2023-03-11T11:21:45.413Z,44.51
2023-03-11T11:24:25.369Z,42.30
2023-03-11T11:27:19.005Z,40.96
2023-03-11T11:29:46.628Z,40.61
2023-03-11T11:32:21.995Z,40.75
2023-03-11T11:34:57.518Z,41.28
2023-03-11T11:37:26.988Z,40.45
2023-03-11T11:39:58.318Z,41.61
2023-03-11T11:42:28.143Z,42.12
2023-03-11T11:45:03.535Z,40.91
2023-03-11T11:47:36.040Z,41.18
2023-03-11T11:50:11.313Z,40.97
2023-03-11T11:52:45.193Z,40.11
2023-03-11T11:55:24.186Z,41.34
2023-03-11T11:57:51.687Z,42.22
2023-03-11T12:00:25.446Z,41.70
2023-03-11T12:03:37.755Z,39.26
2023-03-11T12:06:23.537Z,39.94
2023-03-11T12:09:24.218Z,41.93
2023-03-11T12:12:12.882Z,41.58
2023-03-11T12:14:42.180Z,41.51
2023-03-11T12:17:12.784Z,41.29
2023-03-11T12:20:20.910Z,44.49
2023-03-11T12:23:02.540Z,46.21
2023-03-11T12:30:27.115Z,41.02
2023-03-11T12:33:12.536Z,43.97
2023-03-11T12:35:39.805Z,45.86
2023-03-11T12:41:42.693Z,36.53
2023-03-11T12:44:23.121Z,37.58
2023-03-11T12:46:58.740Z,37.65
2023-03-11T12:52:58.530Z,38.07
2023-03-11T12:55:31.038Z,36.67
2023-03-11T12:58:36.139Z,39.07
2023-03-11T13:01:08.832Z,38.20
2023-03-11T13:03:56.717Z,34.24
2023-03-11T13:11:48.551Z,33.03
2023-03-11T13:15:10.286Z,35.25
2023-03-11T13:17:39.153Z,32.07
2023-03-11T13:38:16.978Z,27.50
2023-03-11T13:40:44.334Z,29.29
2023-03-11T13:43:19.587Z,29.33
2023-03-11T13:46:05.355Z,28.97
2023-03-11T13:48:44.853Z,30.05
2023-03-11T13:51:32.951Z,30.54
2023-03-11T13:54:22.867Z,30.04
2023-03-11T13:56:56.817Z,27.53
2023-03-11T13:59:32.862Z,29.40
2023-03-11T14:02:00.676Z,31.11
2023-03-11T14:04:30.069Z,30.80
2023-03-11T14:06:56.996Z,30.15
2023-03-11T14:09:25.641Z,29.07
2023-03-11T14:12:03.620Z,28.66
2023-03-11T14:14:56.043Z,27.86
2023-03-11T14:17:33.430Z,28.01
2023-03-11T14:20:17.291Z,27.02
2023-03-11T14:22:46.277Z,28.38
2023-03-11T14:25:36.364Z,26.67
2023-03-11T14:28:09.534Z,25.44
2023-03-11T14:30:36.166Z,26.85
2023-03-11T14:33:21.882Z,26.63
2023-03-11T14:35:52.530Z,26.38
2023-03-11T14:38:23.903Z,25.83
2023-03-11T14:41:15.624Z,25.84
2023-03-11T14:43:46.010Z,26.48
2023-03-11T14:46:18.035Z,27.15
2023-03-11T14:48:44.688Z,26.84
2023-03-11T14:51:23.662Z,25.55
2023-03-11T14:53:57.672Z,26.35
2023-03-11T14:56:34.416Z,26.92
2023-03-11T14:59:10.955Z,26.85
2023-03-11T15:01:43.117Z,27.09
2023-03-11T15:04:13.664Z,26.77
2023-03-11T15:06:42.761Z,27.24
2023-03-11T15:09:19.472Z,26.58
2023-03-11T15:11:47.811Z,25.31
2023-03-11T15:14:17.208Z,25.63
2023-03-11T15:16:43.634Z,25.94
2023-03-11T15:19:28.591Z,26.97
2023-03-11T15:21:58.531Z,27.73
2023-03-11T15:24:27.882Z,27.98
2023-03-11T15:26:57.430Z,29.26
2023-03-11T15:29:26.511Z,29.03
2023-03-11T15:31:53.082Z,28.49
2023-03-11T15:34:25.306Z,28.23
2023-03-11T15:36:52.845Z,28.94
2023-03-11T15:39:26.220Z,29.08
2023-03-11T15:42:08.066Z,27.73
2023-03-11T15:44:37.253Z,29.60
2023-03-11T15:47:04.190Z,30.35
2023-03-11T15:49:30.798Z,31.15
2023-03-11T15:52:01.012Z,30.80
2023-03-11T15:54:27.904Z,32.12
2023-03-11T15:56:56.350Z,31.16
2023-03-11T15:59:23.400Z,30.49
2023-03-11T16:02:11.672Z,31.80
2023-03-11T16:04:38.574Z,32.36
2023-03-11T16:07:08.412Z,32.41
2023-03-11T16:09:35.351Z,32.86
2023-03-11T16:12:05.187Z,32.26
2023-03-11T16:14:31.613Z,34.52
2023-03-11T16:16:58.129Z,34.45
2023-03-11T16:19:24.718Z,34.82
2023-03-11T16:21:51.301Z,35.85
2023-03-11T16:24:24.719Z,38.03
2023-03-11T16:26:52.911Z,39.27
2023-03-11T16:29:30.593Z,39.27
2023-03-11T16:31:57.148Z,42.22
2023-03-11T16:34:23.614Z,43.21
2023-03-11T16:36:53.025Z,43.21
2023-03-11T16:39:19.417Z,44.35
2023-03-11T16:41:45.956Z,45.57
2023-03-11T16:44:12.382Z,45.95
2023-03-11T16:46:38.987Z,47.52
2023-03-11T16:49:05.975Z,47.96
2023-03-11T16:51:33.000Z,49.02
2023-03-11T16:53:59.703Z,48.41
2023-03-11T16:56:26.482Z,48.77
2023-03-11T16:58:52.959Z,50.07
2023-03-11T17:01:21.571Z,50.12
2023-03-11T17:03:51.980Z,50.65
2023-03-11T17:06:19.714Z,50.97
2023-03-11T17:08:49.053Z,50.39
2023-03-11T17:11:21.106Z,51.10
2023-03-11T17:13:47.922Z,52.10
2023-03-11T17:16:14.579Z,52.41
2023-03-11T17:18:41.753Z,52.20
2023-03-11T17:21:11.828Z,52.57
2023-03-11T17:23:38.395Z,52.64
2023-03-11T17:26:31.246Z,53.52
2023-03-11T17:28:57.694Z,53.74
2023-03-11T17:31:24.410Z,54.78
2023-03-11T17:33:50.889Z,55.39
2023-03-11T17:36:18.306Z,55.21
2023-03-11T17:38:45.766Z,57.24
2023-03-11T17:41:16.689Z,58.45
2023-03-11T17:43:43.789Z,58.15
2023-03-11T17:46:17.284Z,59.70
2023-03-11T17:48:49.117Z,60.10
2023-03-11T17:51:18.256Z,60.65
2023-03-11T17:53:46.358Z,61.21
2023-03-11T17:56:15.761Z,60.96
2023-03-11T17:58:42.388Z,61.97
2023-03-11T18:01:12.994Z,62.28
2023-03-11T18:03:39.557Z,62.64
2023-03-11T18:06:06.851Z,63.44
2023-03-11T18:08:35.299Z,64.47
2023-03-11T18:11:07.970Z,64.28
2023-03-11T18:13:59.637Z,64.03
2023-03-11T18:16:28.847Z,63.37
2023-03-11T18:18:58.448Z,63.91
2023-03-11T18:21:30.067Z,64.39
2023-03-11T18:23:58.881Z,64.48
